Latest Coastal Weather Observations for Esperance

IDW60701

Issued at 4:55 am WST Tuesday 2 September 2014 (issued every 10 minutes, with the page automatically refreshed every 10 minutes)

About coastal observations | Map of coastal stations | Coastal observations for WA | Marine services | Other Formats
Station Details ID: 009789 Name: ESPERANCE Lat: -33.83 Lon: 121.89 Height: 25.0 m
Data from the previous 72 hours. | See also: Recent months at Esperance
Date/Time
WST
Temp

°C
Wind Pressure Rain
since 9am
mm
Weather Cloud Vis
km
Sea
Height
m
Swell
Dir
 
Speed
knots
Gust
knots
hPa Trend Height
m
Period
s
Dir
02/04:30am 9.5 NNE 13 21 1023.0 - 0.2 - - 10 - - - -
02/04:00am 9.2 NNE 13 18 1022.8 - 0.2 - Partly cloudy 10 - - - -
02/03:30am 9.0 NNE 13 18 1023.1 - 0.2 - Partly cloudy 10 - - - -
02/03:00am 8.6 NNE 11 17 1023.5 F 0.2 - - 10 - - - -
02/02:30am 8.2 NNE 9 13 1024.0 - 0.2 - - 10 - - - -
02/02:00am 8.0 NNE 9 13 1024.1 - 0.2 - - 10 - - - -
02/01:30am 8.3 NNE 11 16 1024.5 - 0.2 - - 10 - - - -
02/01:00am 8.3 NNE 10 15 1025.0 - 0.2 - - 10 - - - -
02/12:30am 8.1 NNE 10 13 1025.1 - 0.2 - - 10 - - - -
02/12:00am 7.8 NNE 7 9 1025.1 F 0.2 - Mostly clear 10 - - - -
 
Date/Time
WST
Temp

°C
Wind Pressure Rain
since 9am
mm
Weather Cloud Vis
km
Sea
Height
m
Swell
Dir
 
Speed
knots
Gust
knots
hPa Trend Height
m
Period
s
Dir
01/11:30pm 7.8 NNE 7 11 1025.7 - 0.2 - - 10 - - - -
01/11:00pm 7.9 NE 6 8 1026.2 - 0.2 - - 10 - - - -
01/10:30pm 8.4 NE 7 11 1026.3 - 0.2 - - 10 - - - -
01/10:00pm 8.4 ENE 5 7 1026.2 - 0.2 - - 10 - - - -
01/09:30pm 8.6 ENE 5 7 1026.2 - 0.2 - - 10 - - - -
01/09:00pm 8.9 E 5 8 1026.4 R 0.2 - - 10 - - - -
01/08:30pm 9.3 E 5 8 1026.5 - 0.2 - - 10 - - - -
01/08:00pm 9.8 ENE 6 11 1026.4 - 0.2 - Mostly clear 10 - - - -
01/07:30pm 9.9 ENE 6 8 1026.3 - 0.2 - Mostly clear 10 - - - -
01/07:00pm 10.5 ENE 5 8 1026.0 - 0.2 - Mostly clear 10 - - - -
01/06:30pm 11.4 ENE 6 11 1025.9 - 0.2 - Mostly clear 10 - - - -
01/06:00pm 12.5 E 10 15 1025.2 R 0.2 Fine Partly cloudy 30 - - - -
01/05:30pm 12.6 E 8 12 1025.0 - 0.2 - Mostly clear 10 - - - -
01/05:00pm 13.3 ESE 10 14 1024.7 - 0.2 - Mostly clear 10 - - - -
01/04:30pm 13.7 ESE 11 15 1024.8 - 0.2 - Mostly clear 10 - - - -
01/04:00pm 13.9 SE 11 15 1024.8 - 0.2 - Mostly clear 10 - - - -
01/03:30pm 14.2 SE 10 14 1024.6 - 0.2 - Mostly clear 10 - - - -
01/03:00pm 14.0 SE 11 14 1024.4 F 0.2 Fine Mostly clear 40 - - - -
01/02:30pm 14.5 SE 10 13 1024.6 - 0.2 - Mostly clear 10 - - - -
01/02:00pm 14.7 SE 9 12 1024.6 - 0.2 - Mostly clear 10 - - - -
01/01:30pm 14.9 SE 8 11 1024.8 - 0.2 - Mostly clear 10 - - - -
01/01:00pm 14.5 SSE 6 9 1025.1 - 0.0 - Mostly clear 10 - - - -
01/12:30pm 14.0 SE 7 10 1025.3 - 0.0 - Mostly clear 10 - - - -
01/12:00pm 14.4 SSE 8 11 1025.6 R 0.0 Fine Partly cloudy 40 - - - -
01/11:30am 14.2 SE 7 10 1025.8 - 0.0 - Mostly clear 10 - - - -
01/11:00am 14.1 SSE 8 11 1026.1 - 0.0 - Mostly clear 10 - - - -
01/10:30am 14.2 SSE 7 11 1026.3 - 0.0 - Mostly clear 10 - - - -
01/10:00am 14.7 SE 5 8 1026.4 - 0.0 - Mostly clear 10 - - - -
01/09:30am 13.4 ESE 3 6 1026.2 - 0.0 - Mostly clear 10 - - - -
01/09:00am 13.2 NNE 3 6 1026.1 R 0.0 Fine Mostly cloudy 30 - - - -
01/08:30am 13.1 N 4 5 1025.8 - 0.0 - Mostly clear 10 - - - -
01/08:00am 11.5 N 4 5 1025.4 - 0.0 - Mostly clear 10 - - - -
01/07:30am 11.3 NNW 4 5 1024.9 - 0.0 - Mostly clear 10 - - - -
01/07:00am 10.8 SW 3 6 1024.5 - 0.0 - Mostly clear 10 - - - -
01/06:30am 11.5 S 5 8 1024.2 - 0.0 - Mostly clear 10 - - - -
01/06:00am 11.9 S 8 12 1023.8 R 0.0 Fine Mostly cloudy 30 - - - -
01/05:30am 11.6 SSE 8 12 1023.3 - 0.0 - Partly cloudy 10 - - - -
01/05:00am 12.0 S 9 13 1023.1 - 0.0 - Cloudy 10 - - - -
01/04:30am 12.0 S 7 14 1022.9 - 0.0 - Cloudy 10 - - - -
01/04:00am 12.2 S 8 12 1023.0 - 0.0 - Partly cloudy 10 - - - -
01/03:30am 12.0 S 7 11 1022.6 - 0.0 - Partly cloudy 10 - - - -
01/03:00am 12.2 S 8 11 1022.3 R 0.0 - Cloudy 10 - - - -
01/02:30am 12.1 SSW 6 9 1022.2 - 0.0 - Partly cloudy 10 - - - -
01/02:00am 12.1 S 7 12 1022.0 - 0.0 - Partly cloudy 10 - - - -
01/01:30am 11.5 SSW 5 6 1022.0 - 0.0 - Partly cloudy 10 - - - -
01/01:00am 12.0 S 7 10 1021.9 - 0.0 - Partly cloudy 10 - - - -
01/12:30am 12.1 S 9 13 1021.8 - 0.0 - Partly cloudy 10 - - - -
01/12:00am 11.9 SSW 7 9 1021.8 R 0.0 - Partly cloudy 10 - - - -
 
Date/Time
WST
Temp

°C
Wind Pressure Rain
since 9am
mm
Weather Cloud Vis
km
Sea
Height
m
Swell
Dir
 
Speed
knots
Gust
knots
hPa Trend Height
m
Period
s
Dir
31/11:30pm 12.3 S 9 15 1021.7 - 0.0 - Partly cloudy 10 - - - -
31/11:00pm 12.4 S 10 15 1021.6 - 0.0 - Partly cloudy 10 - - - -
31/10:30pm 12.2 S 8 13 1021.6 - 0.0 - Partly cloudy 10 - - - -
31/10:00pm 12.5 S 11 15 1021.5 - 0.0 - Partly cloudy 10 - - - -
31/09:30pm 12.4 S 12 19 1021.3 - 0.0 - Partly cloudy 10 - - - -
31/09:00pm 12.5 S 10 18 1021.0 R 0.0 - Mostly cloudy 10 - - - -
31/08:30pm 12.6 S 10 16 1020.8 - 0.0 - Partly cloudy 10 - - - -
31/08:00pm 12.8 S 9 17 1020.5 - 0.0 - Mostly clear 10 - - - -
31/07:30pm 12.8 SSW 10 16 1020.6 - 0.0 - Partly cloudy 10 - - - -
31/07:00pm 13.0 SW 8 13 1020.5 - 0.0 - Mostly clear 10 - - - -
31/06:30pm 12.8 WSW 8 12 1020.1 - 0.0 - Mostly clear 10 - - - -
31/06:00pm 12.8 SW 8 11 1019.3 R 0.0 Fine Partly cloudy 25 - - - -
31/05:30pm 13.2 SW 8 12 1018.9 - 0.0 - Mostly clear 10 - - - -
31/05:00pm 14.2 SW 8 13 1018.6 - 0.0 - Mostly clear 10 - - - -
31/04:30pm 14.7 SW 7 12 1018.3 - 0.0 - Mostly clear 10 - - - -
31/04:00pm 13.8 WSW 8 13 1018.2 - 0.0 - Mostly clear 10 - - - -
31/03:30pm 15.5 WSW 11 17 1017.9 - 0.0 - Mostly clear 10 - - - -
31/03:00pm 15.6 WSW 11 17 1017.3 R 0.0 Fine Partly cloudy 30 - - - -
31/02:30pm 15.9 WSW 11 18 1017.1 - 0.0 - Mostly clear 10 - - - -
31/02:00pm 15.6 WSW 13 20 1017.2 - 0.0 - Mostly clear 10 - - - -
31/01:30pm 16.3 WSW 11 17 1017.1 - 0.0 - Mostly clear 10 - - - -
31/01:00pm 15.7 WSW 10 19 1017.0 - 0.0 - Mostly clear 10 - - - -
31/12:30pm 15.1 W 8 15 1017.2 - 0.0 - Mostly clear 10 - - - -
31/12:00pm 12.7 W 12 19 1017.3 R 0.0 Showers Mostly cloudy 18 - - - -
31/11:30am 13.3 SW 14 25 1017.5 - 0.0 Showers Partly cloudy 10 - - - -
31/11:00am 15.8 W 6 10 1017.3 - 0.0 - Mostly clear 10 - - - -
31/10:30am 15.4 NW 7 9 1017.6 - 0.0 - Mostly clear 10 - - - -
31/10:00am 14.0 WNW 7 11 1017.6 - 0.0 - Mostly clear 10 - - - -
31/09:30am 12.9 WNW 8 10 1017.7 - 0.0 - Mostly clear 10 - - - -
31/09:00am 12.5 NW 5 7 1017.7 R 14.0 Fine Mostly cloudy 30 - - - -
31/08:30am 11.7 WSW 3 4 1017.8 - 14.0 - Mostly clear 10 - - - -
31/08:00am 11.3 SW 6 9 1017.5 - 13.4 - Mostly clear 4 - - - -
31/07:55am 11.4 SSW 6 9 1017.4 - 13.0 Showers Mostly clear 7 - - - -
31/07:30am 11.5 NNW 5 6 1017.2 - 12.6 - Mostly clear 10 - - - -
31/07:00am 11.2 NNW 6 7 1016.9 - 12.6 - Mostly clear 10 - - - -
31/06:30am 11.2 NNW 4 5 1016.8 - 12.6 - Mostly clear 10 - - - -
31/06:00am 11.2 WSW 1 3 1016.5 R 12.6 Recent precip. Cloudy 20 - - - -
31/05:39am 11.2 SSW 4 5 1016.5 - 12.6 - Partly cloudy 6 - - - -
31/05:30am 11.1 S 5 7 1016.5 - 12.4 - Partly cloudy 10 - - - -
31/05:22am 11.1 S 5 8 1016.4 - 12.4 - Partly cloudy 10 - - - -
31/05:20am 11.1 S 5 8 1016.5 - 12.4 - Partly cloudy 10 - - - -
31/05:02am 11.2 SSW 9 14 1016.3 - 12.4 - Partly cloudy 5 - - - -
31/05:00am 11.3 SSW 9 14 1016.4 - 12.4 - Partly cloudy 5 - - - -
31/04:57am 11.5 SSW 8 13 1016.3 - 12.4 - Partly cloudy 4 - - - -
31/04:30am 11.6 SW 7 11 1016.1 - 11.8 - Partly cloudy 4 - - - -
31/04:01am 12.0 SW 6 12 1015.6 - 10.2 - Partly cloudy 4 - - - -
31/04:00am 12.0 SW 7 12 1015.5 - 10.2 - Partly cloudy 4 - - - -
31/03:55am 12.0 WSW 8 12 1015.4 - 10.2 - Partly cloudy 6 - - - -
31/03:30am 12.0 NW 6 7 1015.2 - 9.6 - Partly cloudy 10 - - - -
31/03:00am 12.5 W 4 5 1015.0 F 9.6 - Cloudy 10 - - - -
31/02:30am 12.6 W 3 4 1015.1 - 9.6 - Cloudy 10 - - - -
31/02:00am 12.5 WSW 3 4 1015.3 - 9.6 - Cloudy 10 - - - -
31/01:30am 12.5 SW 3 4 1015.5 - 9.6 - Cloudy 10 - - - -
31/01:00am 12.5 WSW 3 4 1015.6 - 9.6 - Cloudy 10 - - - -
31/12:30am 12.4 SSW 4 7 1015.9 - 9.6 - Cloudy 10 - - - -
31/12:00am 12.6 S 9 16 1016.2 F 9.6 - Cloudy 10 - - - -
 
Date/Time
WST
Temp

°C
Wind Pressure Rain
since 9am
mm
Weather Cloud Vis
km
Sea
Height
m
Swell
Dir
 
Speed
knots
Gust
knots
hPa Trend Height
m
Period
s
Dir
30/11:30pm 13.0 S 7 9 1016.4 - 9.6 - Partly cloudy 10 - - - -
30/11:14pm 12.9 S 6 8 1016.1 - 9.6 - Partly cloudy 10 - - - -
30/11:11pm 12.9 SSW 6 8 1016.2 - 9.6 - Partly cloudy 10 - - - -
30/11:01pm 13.1 S 7 12 1016.2 - 9.6 - Partly cloudy 5 - - - -
30/11:00pm 13.1 S 7 12 1016.2 - 9.6 - Partly cloudy 5 - - - -
30/10:49pm 13.4 CALM 0 4 1016.2 - 9.4 - Partly cloudy 6 - - - -
30/10:36pm 13.4 SSE 2 4 1016.4 - 9.2 - Partly cloudy 10 - - - -
30/10:30pm 13.4 SE 3 5 1016.5 - 9.2 - Partly cloudy 10 - - - -
30/10:16pm 13.3 SSE 5 6 1016.3 - 9.2 - Partly cloudy 6 - - - -
30/10:15pm 13.3 SSE 4 6 1016.3 - 9.0 - Partly cloudy 7 - - - -
30/10:00pm 13.2 S 4 5 1016.6 - 8.8 - Partly cloudy 10 - - - -
30/09:40pm 13.2 S 6 8 1016.5 - 8.8 - Partly cloudy 4 - - - -
30/09:30pm 13.3 S 6 8 1016.4 - 8.2 - Partly cloudy 3 - - - -
30/09:13pm 13.3 CALM 0 2 1016.8 - 8.0 - Partly cloudy 10 - - - -
30/09:00pm 13.3 W 3 5 1016.9 R 8.0 Rain Cloudy 2 - - - -
30/08:51pm 13.3 SW 3 4 1016.9 - 7.4 - Partly cloudy 6 - - - -
30/08:31pm 13.2 SSE 4 5 1016.3 - 7.4 - Partly cloudy 10 - - - -
30/08:30pm 13.2 SSE 3 5 1016.3 - 7.4 - Partly cloudy 10 - - - -
30/08:25pm 13.2 SSE 4 5 1016.2 - 7.4 Showers Partly cloudy 10 - - - -
30/08:12pm 13.3 S 4 12 1016.4 - 7.4 Showers Partly cloudy 4 - - - -
30/08:07pm 13.5 SSE 1 10 1016.4 - 7.2 Showers Mostly clear 7 - - - -
30/08:00pm 13.7 CALM 0 0 1016.3 - 7.2 - Partly cloudy 10 - - - -
30/07:30pm 13.6 CALM 0 0 1016.1 - 7.2 Showers Partly cloudy 10 - - - -
30/07:00pm 13.4 S 3 4 1016.2 - 7.2 - Partly cloudy 10 - - - -
30/06:51pm 13.4 SSW 3 4 1016.2 - 7.2 - Partly cloudy 10 - - - -
30/06:30pm 13.4 S 4 6 1015.8 - 7.0 Showers Mostly clear 7 - - - -
30/06:00pm 13.7 SSW 7 10 1015.4 R 6.8 Fine Mostly cloudy 25 - - - -
30/05:30pm 14.5 SSW 5 7 1015.0 - 6.8 - Partly cloudy 10 - - - -
30/05:00pm 14.8 S 5 7 1014.8 - 6.8 - Mostly clear 10 - - - -
30/04:30pm 14.8 S 6 7 1014.6 - 6.8 - Mostly clear 10 - - - -
30/04:12pm 14.7 S 5 7 1014.4 - 6.8 - Mostly clear 10 - - - -
30/04:00pm 14.7 S 4 7 1014.2 - 6.8 - Mostly clear 10 - - - -
30/03:50pm 14.7 S 4 5 1014.1 - 6.8 - Mostly clear 10 - - - -
30/03:30pm 14.6 SSW 5 7 1014.1 - 6.4 Showers Mostly clear 6 - - - -
30/03:00pm 14.8 WNW 5 9 1014.0 R 4.6 Showers Cloudy 3 - - - -
30/02:45pm 15.2 WSW 6 9 1014.1 - 2.6 Showers Mostly clear 7 - - - -
30/02:30pm 15.5 WSW 6 9 1013.9 - 2.4 Showers Mostly clear 10 - - - -
30/02:00pm 15.5 W 7 11 1013.8 - 2.4 - Mostly clear 10 - - - -
30/01:41pm 15.0 WSW 7 12 1014.0 - 2.2 Showers Mostly clear 8 - - - -
30/01:30pm 14.9 WSW 9 13 1014.0 - 1.8 Showers Partly cloudy 7 - - - -
30/01:13pm 15.7 WSW 9 14 1013.9 - 0.6 - Partly cloudy 7 - - - -
30/01:00pm 17.2 WSW 9 15 1013.7 - 0.0 - Partly cloudy 10 - - - -
30/12:30pm 18.7 WSW 9 13 1013.6 - 0.0 - Mostly clear 10 - - - -
30/12:00pm 19.2 WSW 9 13 1014.0 R 0.0 Fine Mostly cloudy 40 - - - -
30/11:30am 17.9 W 8 12 1014.0 - 0.0 - Mostly clear 10 - - - -
30/11:00am 17.7 W 9 13 1014.3 - 0.0 - Mostly clear 10 - - - -
30/10:30am 17.8 WNW 11 15 1014.4 - 0.0 - Mostly clear 10 - - - -
30/10:00am 17.0 NW 11 17 1014.5 - 0.0 - Mostly clear 10 - - - -
30/09:30am 16.0 NNW 11 15 1014.3 - 0.0 - - 10 - - - -
30/09:00am 15.4 NNW 11 16 1014.5 R 17.0 Fine Mostly cloudy 40 - - - -
30/08:30am 13.8 NNW 10 15 1014.5 - 17.0 - Mostly clear 10 - - - -
30/08:00am 13.4 N 9 13 1014.1 - 17.0 - Mostly clear 10 - - - -
30/07:30am 13.2 N 9 13 1014.0 - 17.0 Rain Mostly clear 10 - - - -
30/07:00am 13.2 N 8 11 1013.7 - 17.0 - Mostly clear 10 - - - -
30/06:30am 13.4 NNW 11 15 1013.3 - 16.6 Rain Mostly clear 10 - - - -
30/06:00am 13.6 N 9 13 1012.9 F 16.4 Rain Cloudy 20 - - - -
30/05:30am 13.8 NNW 11 16 1012.8 - 16.2 - Partly cloudy 10 - - - -
30/05:00am 13.9 NNW 12 15 1012.5 - 15.2 - Partly cloudy 10 - - - -

Other Formats:

Comma delimited format used in spreadsheet applications
http://www.bom.gov.au/fwo/IDW60701/IDW60701.94638.axf

JavaScript Object Notation format (JSON) in row-major order
http://www.bom.gov.au/fwo/IDW60701/IDW60701.94638.json